Time;durP1;ratioP1;P1;durP2;ratioP2;P2;SDS_P1;SDS_P2;PMS_P1;PMS_P2;Temp;Humidity;BMP_temperature;BMP_pressure;BME280_temperature;BME280_humidity;BME280_pressure;Samples;Min_cycle;Max_cycle;Signal;HPM_P1;HPM_P2
2020/12/16 00:01:06;;;;;;;34.80;18.33;;;9.20;99.90;;;;;;4980398;28;20048;-78
2020/12/16 00:03:36;;;;;;;39.35;18.70;;;9.20;99.90;;;;;;4998466;28;20351;-78
2020/12/16 00:06:03;;;;;;;37.75;16.77;;;9.20;99.90;;;;;;5005966;28;20404;-76
2020/12/16 00:08:33;;;;;;;33.38;17.15;;;9.20;99.90;;;;;;4970598;28;20042;-77
2020/12/16 00:10:59;;;;;;;28.30;15.60;;;9.20;99.90;;;;;;5005938;28;21292;-78
2020/12/16 00:13:26;;;;;;;35.30;17.50;;;9.20;99.90;;;;;;5002939;28;20096;-77
2020/12/16 00:15:56;;;;;;;30.33;15.93;;;9.20;99.90;;;;;;5004501;28;20054;-78
2020/12/16 00:18:22;;;;;;;29.92;15.48;;;9.20;99.90;;;;;;4985494;28;20449;-77
2020/12/16 00:20:49;;;;;;;33.20;15.88;;;9.20;99.90;;;;;;5005383;28;20494;-77
2020/12/16 00:23:17;;;;;;;27.88;15.55;;;9.20;99.90;;;;;;5002694;28;20053;-77
2020/12/16 00:25:43;;;;;;;28.80;15.40;;;9.30;99.90;;;;;;4992311;28;20377;-77
2020/12/16 00:28:13;;;;;;;29.70;15.98;;;9.30;99.90;;;;;;4991454;28;20133;-78
2020/12/16 00:30:39;;;;;;;31.23;16.35;;;9.30;99.90;;;;;;4986994;28;20052;-78
2020/12/16 00:33:06;;;;;;;34.00;16.35;;;9.30;99.90;;;;;;4984106;28;20492;-77
2020/12/16 00:35:32;;;;;;;39.20;16.98;;;9.30;99.90;;;;;;4985728;28;20061;-77
2020/12/16 00:37:59;;;;;;;42.10;16.35;;;9.30;99.90;;;;;;5000539;28;20481;-77
2020/12/16 00:40:25;;;;;;;33.75;15.93;;;9.30;99.90;;;;;;5001669;28;20054;-76
2020/12/16 00:42:52;;;;;;;38.88;15.75;;;9.30;99.90;;;;;;4991141;28;20378;-77
2020/12/16 00:45:22;;;;;;;43.17;16.63;;;9.20;99.90;;;;;;5004120;28;20074;-78
2020/12/16 00:47:49;;;;;;;47.08;16.88;;;9.10;99.90;;;;;;5006441;28;20045;-76
2020/12/16 00:50:16;;;;;;;53.53;17.95;;;9.20;99.90;;;;;;5008743;28;20124;-77
2020/12/16 00:52:52;;;;;;;52.53;17.23;;;9.20;99.90;;;;;;4982449;28;20053;-76
2020/12/16 00:55:19;;;;;;;46.83;15.48;;;9.30;99.90;;;;;;5003136;28;20122;-76
2020/12/16 00:57:46;;;;;;;58.05;15.82;;;9.30;99.90;;;;;;4990913;28;20508;-76
2020/12/16 01:00:13;;;;;;;50.63;16.38;;;9.20;99.90;;;;;;4989178;28;20057;-77
2020/12/16 01:02:41;;;;;;;50.65;16.15;;;9.30;99.90;;;;;;5002504;28;20598;-77
2020/12/16 01:05:08;;;;;;;58.33;15.85;;;9.30;99.90;;;;;;5000319;28;20042;-77
2020/12/16 01:07:37;;;;;;;52.83;14.80;;;9.30;99.90;;;;;;5001728;28;20042;-76
2020/12/16 01:10:04;;;;;;;62.55;16.08;;;9.30;99.90;;;;;;5003671;28;20405;-77
2020/12/16 01:12:35;;;;;;;51.13;15.77;;;9.40;99.90;;;;;;5000302;28;20081;-77
2020/12/16 01:15:05;;;;;;;51.50;15.13;;;9.40;99.90;;;;;;5000957;28;20054;-77
2020/12/16 01:17:31;;;;;;;77.75;18.60;;;9.40;99.90;;;;;;5000228;28;20050;-77
2020/12/16 01:19:57;;;;;;;61.05;17.50;;;9.40;99.90;;;;;;4999166;28;20053;-77
2020/12/16 01:22:24;;;;;;;54.42;17.08;;;9.40;99.90;;;;;;4998461;28;20465;-76
2020/12/16 01:24:50;;;;;;;49.85;15.82;;;9.50;99.90;;;;;;4997985;28;20610;-77
2020/12/16 01:27:17;;;;;;;61.60;16.23;;;9.50;99.90;;;;;;4981773;28;20150;-77
2020/12/16 01:29:43;;;;;;;56.80;17.17;;;9.50;99.90;;;;;;5004662;28;20057;-76
2020/12/16 01:32:14;;;;;;;53.85;17.08;;;9.50;99.90;;;;;;5001159;28;20046;-76
2020/12/16 01:34:41;;;;;;;57.00;16.45;;;9.60;99.90;;;;;;5005512;28;20108;-76
2020/12/16 01:37:08;;;;;;;59.13;17.60;;;9.60;99.90;;;;;;5002655;28;20054;-77
2020/12/16 01:39:34;;;;;;;52.65;16.83;;;9.60;99.90;;;;;;4996437;28;20111;-76
2020/12/16 01:42:00;;;;;;;55.00;16.85;;;9.60;99.90;;;;;;4982346;28;20054;-77
2020/12/16 01:44:29;;;;;;;56.47;15.77;;;9.70;99.90;;;;;;4989747;28;20049;-76
2020/12/16 01:46:59;;;;;;;51.58;15.30;;;9.60;99.90;;;;;;4999934;28;20054;-77
2020/12/16 01:49:27;;;;;;;49.03;16.00;;;9.60;99.90;;;;;;4982064;28;20046;-77
2020/12/16 01:51:58;;;;;;;53.00;15.55;;;9.60;99.90;;;;;;4996014;28;20049;-77
2020/12/16 01:54:25;;;;;;;50.38;14.93;;;9.70;99.90;;;;;;5001326;28;20154;-77
2020/12/16 01:56:55;;;;;;;58.70;14.85;;;9.70;99.90;;;;;;4990779;28;20052;-77
2020/12/16 01:59:24;;;;;;;52.28;14.65;;;9.70;99.90;;;;;;4998821;28;20080;-77
2020/12/16 02:01:53;;;;;;;56.47;15.55;;;9.70;99.90;;;;;;5001069;28;20456;-76
2020/12/16 02:04:23;;;;;;;52.00;15.20;;;9.70;99.90;;;;;;4991356;28;20064;-76
2020/12/16 02:06:50;;;;;;;57.88;15.05;;;9.70;99.90;;;;;;5003662;28;20080;-76
2020/12/16 02:09:19;;;;;;;53.70;13.93;;;9.70;99.90;;;;;;4989103;28;20054;-77
2020/12/16 02:11:46;;;;;;;47.03;13.82;;;9.70;99.90;;;;;;4995827;28;20060;-76
2020/12/16 02:14:12;;;;;;;49.60;13.35;;;9.70;99.90;;;;;;4998322;28;20104;-75
2020/12/16 02:16:40;;;;;;;50.58;15.43;;;9.60;99.90;;;;;;5002294;28;20046;-76
2020/12/16 02:19:08;;;;;;;50.72;14.98;;;9.70;99.90;;;;;;5000073;28;20050;-77
2020/12/16 02:21:35;;;;;;;54.80;15.70;;;9.70;99.90;;;;;;5007203;28;20128;-77
2020/12/16 02:24:07;;;;;;;50.05;13.80;;;9.70;99.90;;;;;;5003830;28;20057;-77
2020/12/16 02:26:39;;;;;;;58.28;14.27;;;9.70;99.90;;;;;;5003287;28;20145;-76
2020/12/16 02:29:07;;;;;;;64.63;12.80;;;9.70;99.90;;;;;;4987430;28;20382;-77
2020/12/16 02:31:37;;;;;;;56.65;14.07;;;9.60;99.90;;;;;;5003065;28;20482;-76
2020/12/16 02:34:04;;;;;;;70.72;13.88;;;9.60;99.90;;;;;;5002118;28;20053;-77
2020/12/16 02:36:32;;;;;;;51.75;13.25;;;9.60;99.90;;;;;;4991239;28;20069;-77
2020/12/16 02:38:59;;;;;;;60.38;13.90;;;9.60;99.90;;;;;;5008208;28;20088;-78
2020/12/16 02:41:27;;;;;;;59.70;14.50;;;9.60;99.90;;;;;;5003720;28;20104;-77
2020/12/16 02:43:53;;;;;;;65.20;13.93;;;9.60;99.90;;;;;;5008119;28;20057;-77
2020/12/16 02:46:20;;;;;;;76.70;13.95;;;9.60;99.90;;;;;;5003395;28;20096;-77
2020/12/16 02:48:47;;;;;;;73.20;13.70;;;9.50;99.90;;;;;;5004685;28;20405;-76
2020/12/16 02:51:13;;;;;;;54.65;13.35;;;9.50;99.90;;;;;;5004187;28;20058;-77
2020/12/16 02:53:40;;;;;;;74.60;15.07;;;9.50;99.90;;;;;;5002693;28;20061;-78
2020/12/16 02:56:07;;;;;;;70.10;16.10;;;9.50;99.90;;;;;;4993223;28;20065;-76
2020/12/16 02:58:33;;;;;;;62.70;14.80;;;9.50;99.90;;;;;;4985063;28;20057;-77
2020/12/16 03:01:00;;;;;;;53.72;14.13;;;9.50;99.90;;;;;;4983806;28;20058;-77
2020/12/16 03:03:26;;;;;;;52.45;13.98;;;9.50;99.90;;;;;;4999025;28;20046;-77
2020/12/16 03:05:52;;;;;;;44.50;12.93;;;9.50;99.90;;;;;;4985722;28;20469;-75
2020/12/16 03:08:19;;;;;;;57.17;13.68;;;9.50;99.90;;;;;;4989811;28;20081;-76
2020/12/16 03:10:46;;;;;;;40.22;12.38;;;9.50;99.90;;;;;;5004251;28;20050;-77
2020/12/16 03:13:12;;;;;;;36.17;11.10;;;9.40;99.90;;;;;;4998350;28;20045;-77
2020/12/16 03:15:39;;;;;;;41.35;12.25;;;9.40;99.90;;;;;;5009112;28;20054;-77
2020/12/16 03:18:05;;;;;;;38.95;11.75;;;9.40;99.90;;;;;;5004101;28;20107;-77
2020/12/16 03:20:32;;;;;;;35.80;11.35;;;9.40;99.90;;;;;;5004202;28;20058;-77
2020/12/16 03:22:59;;;;;;;34.58;10.90;;;9.40;99.90;;;;;;5005129;28;20053;-77
2020/12/16 03:25:25;;;;;;;38.97;12.05;;;9.40;99.90;;;;;;5009142;28;20041;-77
2020/12/16 03:27:52;;;;;;;32.70;11.50;;;9.50;99.90;;;;;;5002425;28;20050;-78
2020/12/16 03:30:18;;;;;;;31.55;10.98;;;9.50;99.90;;;;;;5004216;28;20046;-78
2020/12/16 03:32:44;;;;;;;27.52;10.35;;;9.50;99.90;;;;;;4999894;28;20054;-77
2020/12/16 03:35:11;;;;;;;40.15;13.15;;;9.50;99.90;;;;;;4986065;28;20551;-77
2020/12/16 03:37:40;;;;;;;37.28;12.63;;;9.60;99.90;;;;;;5002748;28;20053;-78
2020/12/16 03:40:06;;;;;;;40.67;12.63;;;9.50;99.90;;;;;;4990788;28;20050;-77
2020/12/16 03:42:35;;;;;;;38.53;12.88;;;9.50;99.90;;;;;;4989758;28;20057;-76
2020/12/16 03:45:03;;;;;;;34.63;12.50;;;9.50;99.90;;;;;;4986167;28;20038;-78
2020/12/16 03:47:30;;;;;;;33.72;12.93;;;9.50;99.90;;;;;;4984854;28;20426;-77
2020/12/16 03:49:56;;;;;;;48.80;13.55;;;9.50;99.90;;;;;;5005850;28;20501;-77
2020/12/16 03:52:22;;;;;;;49.95;13.65;;;9.60;99.90;;;;;;4983193;28;20050;-78
2020/12/16 03:54:49;;;;;;;64.82;16.23;;;9.60;99.90;;;;;;5009569;28;20057;-77
2020/12/16 03:57:15;;;;;;;66.03;15.32;;;9.50;99.90;;;;;;4990505;28;20100;-78
2020/12/16 03:59:41;;;;;;;59.03;17.15;;;9.40;99.90;;;;;;4999513;28;20050;-77
2020/12/16 04:02:08;;;;;;;71.20;17.27;;;9.40;99.90;;;;;;4989370;28;20144;-78
2020/12/16 04:04:34;;;;;;;58.85;16.00;;;9.40;99.90;;;;;;4989918;28;20556;-76
2020/12/16 04:07:00;;;;;;;59.53;16.38;;;9.40;99.90;;;;;;4980714;28;20047;-76
2020/12/16 04:09:27;;;;;;;62.67;15.70;;;9.40;99.90;;;;;;5004164;28;20046;-76
2020/12/16 04:11:54;;;;;;;58.67;16.27;;;9.40;99.90;;;;;;5004336;28;20453;-76
2020/12/16 04:14:21;;;;;;;52.72;14.55;;;9.50;99.90;;;;;;5008584;28;20100;-76
2020/12/16 04:16:48;;;;;;;57.38;16.05;;;9.40;99.90;;;;;;5002554;28;20485;-76
2020/12/16 04:19:15;;;;;;;50.60;14.68;;;9.40;99.90;;;;;;5003180;28;20062;-76
2020/12/16 04:21:41;;;;;;;47.58;14.20;;;9.40;99.90;;;;;;4999671;28;20073;-76
2020/12/16 04:24:07;;;;;;;40.30;13.10;;;9.40;99.90;;;;;;5002985;28;20093;-76
2020/12/16 04:26:34;;;;;;;40.15;13.57;;;9.40;99.90;;;;;;5002834;28;20200;-76
2020/12/16 04:29:00;;;;;;;45.83;14.18;;;9.40;99.90;;;;;;5005052;28;20097;-76
2020/12/16 04:31:26;;;;;;;42.00;13.13;;;9.30;99.90;;;;;;5001808;28;20112;-76
2020/12/16 04:33:53;;;;;;;43.72;13.68;;;9.30;99.90;;;;;;5004927;28;20103;-75
2020/12/16 04:36:19;;;;;;;39.38;13.20;;;9.30;99.90;;;;;;4992748;28;20054;-76
2020/12/16 04:38:46;;;;;;;37.30;13.75;;;9.20;99.90;;;;;;5003561;28;20718;-76
2020/12/16 04:41:12;;;;;;;46.08;13.40;;;9.20;99.90;;;;;;5005562;28;20045;-76
2020/12/16 04:43:42;;;;;;;38.90;12.55;;;9.20;99.90;;;;;;4992939;28;20046;-76
2020/12/16 04:46:10;;;;;;;;;;;9.30;99.90;;;;;;4989708;28;20050;-76
2020/12/16 04:48:37;;;;;;;39.10;13.07;;;9.40;99.90;;;;;;4998227;28;20323;-76
2020/12/16 04:51:04;;;;;;;34.60;13.02;;;9.40;99.90;;;;;;5002500;28;20105;-77
2020/12/16 04:53:33;;;;;;;34.20;12.48;;;9.40;99.90;;;;;;5000846;28;20069;-76
2020/12/16 04:56:00;;;;;;;36.95;13.13;;;9.30;99.90;;;;;;5002288;28;20520;-76
2020/12/16 04:58:27;;;;;;;31.10;11.40;;;9.30;99.90;;;;;;4991627;28;20125;-76
2020/12/16 05:00:53;;;;;;;36.10;12.15;;;9.30;99.90;;;;;;5005817;28;20504;-77
2020/12/16 05:03:19;;;;;;;33.80;11.82;;;9.40;99.90;;;;;;4999457;28;20046;-76
2020/12/16 05:05:46;;;;;;;34.65;11.43;;;9.40;99.90;;;;;;5003357;28;20046;-77
2020/12/16 05:08:15;;;;;;;36.67;12.32;;;9.40;99.90;;;;;;5001997;28;20116;-76
2020/12/16 05:10:43;;;;;;;38.03;12.23;;;9.30;99.90;;;;;;4982793;28;20050;-77
2020/12/16 05:13:12;;;;;;;34.80;11.73;;;9.30;99.90;;;;;;4987217;28;20135;-76
2020/12/16 05:15:43;;;;;;;40.47;13.60;;;9.30;99.90;;;;;;5006960;28;20485;-76
2020/12/16 05:18:13;;;;;;;33.05;12.43;;;9.40;99.90;;;;;;4984814;28;20134;-77
2020/12/16 05:20:51;;;;;;;36.00;11.60;;;9.40;99.90;;;;;;5003441;28;20452;-77
2020/12/16 05:23:28;;;;;;;28.85;11.00;;;9.40;99.90;;;;;;4998555;28;20463;-77
2020/12/16 05:26:00;;;;;;;41.45;12.20;;;9.40;99.90;;;;;;5001657;28;20050;-77
2020/12/16 05:28:33;;;;;;;38.35;13.05;;;9.30;99.90;;;;;;5002329;28;20053;-77
2020/12/16 05:31:02;;;;;;;38.20;13.52;;;9.20;99.90;;;;;;4999012;28;20100;-77
2020/12/16 05:33:30;;;;;;;36.40;12.23;;;9.30;99.90;;;;;;5000985;28;20042;-76
2020/12/16 05:35:56;;;;;;;35.75;12.93;;;9.40;99.90;;;;;;4988599;28;20500;-77
2020/12/16 05:38:23;;;;;;;37.63;13.25;;;9.40;99.90;;;;;;4997894;28;20050;-77
2020/12/16 05:40:50;;;;;;;32.08;12.02;;;9.40;99.90;;;;;;4987370;28;20402;-76
2020/12/16 05:43:25;;;;;;;38.60;12.57;;;9.40;99.90;;;;;;5004085;28;20113;-76
2020/12/16 05:45:55;;;;;;;38.95;12.15;;;9.50;99.90;;;;;;4998617;28;20045;-76
2020/12/16 05:48:27;;;;;;;37.15;12.70;;;9.40;99.90;;;;;;5008399;28;20057;-77
2020/12/16 05:50:57;;;;;;;38.03;13.07;;;9.50;99.90;;;;;;5002270;28;20049;-77
2020/12/16 05:53:28;;;;;;;40.35;13.02;;;9.40;99.90;;;;;;5007427;28;20108;-77
2020/12/16 05:56:00;;;;;;;39.45;12.63;;;9.30;99.90;;;;;;5009217;28;20085;-78
2020/12/16 05:58:32;;;;;;;35.25;11.90;;;9.30;99.90;;;;;;5009085;28;20386;-76
2020/12/16 06:01:01;;;;;;;41.08;13.10;;;9.20;99.90;;;;;;4992412;28;20145;-76
2020/12/16 06:03:36;;;;;;;38.15;13.00;;;9.40;99.90;;;;;;4988506;28;20058;-76
2020/12/16 06:06:10;;;;;;;38.03;13.32;;;9.40;99.90;;;;;;5000687;28;20046;-76
2020/12/16 06:08:43;;;;;;;36.63;12.25;;;9.40;99.90;;;;;;5003844;28;20042;-76
2020/12/16 06:11:12;;;;;;;39.65;12.07;;;9.40;99.90;;;;;;5005537;28;20077;-77
2020/12/16 06:13:44;;;;;;;37.65;12.07;;;9.40;99.90;;;;;;5003467;28;20420;-77
2020/12/16 06:16:11;;;;;;;35.08;12.23;;;9.40;99.90;;;;;;5010506;28;20058;-76
2020/12/16 06:18:44;;;;;;;37.75;13.23;;;9.50;99.90;;;;;;5007475;28;20058;-76
2020/12/16 06:21:13;;;;;;;35.78;12.48;;;9.50;99.90;;;;;;4986270;28;20053;-77
2020/12/16 06:23:41;;;;;;;36.93;12.43;;;9.50;99.90;;;;;;4988565;28;20412;-77
2020/12/16 06:26:12;;;;;;;33.40;11.38;;;9.50;99.90;;;;;;5002963;28;20042;-76
2020/12/16 06:28:40;;;;;;;32.80;11.30;;;9.50;99.90;;;;;;5001467;28;20470;-77
2020/12/16 06:31:25;;;;;;;37.40;12.70;;;9.60;99.90;;;;;;5007620;28;20474;-77
2020/12/16 06:34:04;;;;;;;33.65;11.80;;;9.60;99.90;;;;;;4995117;28;20477;-76
2020/12/16 06:36:33;;;;;;;;;;;9.50;99.90;;;;;;4987967;28;20054;-76
2020/12/16 06:38:59;;;;;;;30.98;10.77;;;9.60;99.90;;;;;;5006716;28;20329;-77
2020/12/16 06:41:33;;;;;;;34.40;12.45;;;9.60;99.90;;;;;;5003367;28;20070;-76
2020/12/16 06:44:12;;;;;;;35.15;12.50;;;9.60;99.90;;;;;;4987230;28;20458;-75
2020/12/16 06:46:41;;;;;;;34.45;13.05;;;9.60;99.90;;;;;;5007093;28;20120;-76
2020/12/16 06:49:29;;;;;;;30.30;11.77;;;9.60;99.90;;;;;;4997951;28;20054;-76
2020/12/16 06:52:07;;;;;;;32.38;12.10;;;9.60;99.90;;;;;;5002445;28;20050;-76
2020/12/16 06:54:44;;;;;;;31.25;12.32;;;9.60;99.90;;;;;;5006976;28;20069;-77
2020/12/16 06:57:29;;;;;;;37.30;12.85;;;9.70;99.90;;;;;;4988095;28;20084;-76
2020/12/16 07:00:00;;;;;;;33.15;12.32;;;9.70;99.90;;;;;;4990119;28;20460;-77
2020/12/16 07:02:33;;;;;;;30.48;11.95;;;9.70;99.90;;;;;;4992140;28;20395;-77
2020/12/16 07:05:04;;;;;;;34.75;13.43;;;9.70;99.90;;;;;;5000666;28;20536;-76
2020/12/16 07:07:57;;;;;;;32.97;11.82;;;9.70;99.90;;;;;;5002382;28;20101;-75
2020/12/16 07:10:41;;;;;;;31.35;12.68;;;9.70;99.90;;;;;;4988164;28;20053;-76
2020/12/16 07:13:25;;;;;;;32.35;12.77;;;9.70;99.90;;;;;;5008273;28;20451;-76
2020/12/16 07:16:13;;;;;;;32.35;12.38;;;9.80;99.90;;;;;;4985073;28;20444;-76
2020/12/16 07:18:51;;;;;;;26.33;11.70;;;9.80;99.90;;;;;;5007478;28;20463;-75
2020/12/16 07:21:20;;;;;;;30.27;12.55;;;9.90;99.90;;;;;;4991283;28;20061;-76
2020/12/16 07:23:54;;;;;;;31.70;12.60;;;9.90;99.90;;;;;;5002531;28;20041;-76
2020/12/16 07:26:27;;;;;;;31.45;13.18;;;9.80;99.90;;;;;;4992436;28;20038;-76
2020/12/16 07:28:55;;;;;;;34.13;13.98;;;9.80;99.90;;;;;;4994276;28;20484;-77
2020/12/16 07:31:22;;;;;;;37.22;14.07;;;9.80;99.90;;;;;;4996736;28;20472;-76
2020/12/16 07:33:48;;;;;;;34.55;13.25;;;9.80;99.90;;;;;;5004035;28;20042;-76
2020/12/16 07:36:16;;;;;;;32.85;13.30;;;9.80;99.90;;;;;;4994486;28;20053;-77
2020/12/16 07:38:48;;;;;;;38.85;14.00;;;9.80;99.90;;;;;;5005131;28;20769;-77
2020/12/16 07:41:28;;;;;;;37.47;13.23;;;9.80;99.90;;;;;;5007693;28;20123;-76
2020/12/16 07:44:01;;;;;;;37.58;12.82;;;9.80;99.90;;;;;;4998114;28;20133;-77
2020/12/16 07:46:27;;;;;;;36.40;13.35;;;9.80;99.90;;;;;;5005729;28;20046;-76
2020/12/16 07:48:53;;;;;;;37.28;13.65;;;9.90;99.90;;;;;;5000678;28;20444;-75
2020/12/16 07:51:21;;;;;;;32.30;13.27;;;9.90;99.90;;;;;;4998294;28;20042;-76
2020/12/16 07:53:51;;;;;;;37.97;13.63;;;9.90;99.90;;;;;;4991279;28;20478;-76
2020/12/16 07:56:20;;;;;;;41.47;13.73;;;9.90;99.90;;;;;;5007120;28;20042;-76
2020/12/16 07:58:47;;;;;;;38.63;13.68;;;9.80;99.90;;;;;;5001553;28;20069;-77
2020/12/16 08:01:18;;;;;;;33.33;13.32;;;9.80;99.90;;;;;;5005360;28;20060;-76
2020/12/16 08:03:46;;;;;;;35.67;13.90;;;9.80;99.90;;;;;;5003615;28;20053;-76
2020/12/16 08:06:13;;;;;;;33.78;13.13;;;9.90;99.90;;;;;;4997844;28;20317;-76
2020/12/16 08:08:53;;;;;;;36.47;13.48;;;9.80;99.90;;;;;;5001961;28;20053;-75
2020/12/16 08:11:27;;;;;;;37.97;14.27;;;9.80;99.90;;;;;;4999372;28;20058;-76
2020/12/16 08:14:04;;;;;;;32.28;12.30;;;9.90;99.90;;;;;;4986600;28;20097;-76
2020/12/16 08:16:32;;;;;;;37.70;13.98;;;10.00;99.90;;;;;;5003018;28;20113;-74
2020/12/16 08:18:59;;;;;;;36.70;13.88;;;9.90;99.90;;;;;;5002813;28;20062;-75
2020/12/16 08:21:26;;;;;;;37.35;14.02;;;9.90;99.90;;;;;;5000827;28;20056;-75
2020/12/16 08:23:54;;;;;;;37.40;14.15;;;10.00;99.90;;;;;;4988827;28;20047;-76
2020/12/16 08:26:23;;;;;;;36.20;14.27;;;10.00;99.90;;;;;;4983527;28;20116;-75
2020/12/16 08:28:50;;;;;;;35.17;13.88;;;10.00;99.90;;;;;;5001838;28;20112;-75
2020/12/16 08:32:07;;;;;;;40.22;13.82;;;10.00;99.90;;;;;;5003868;28;20038;-75
2020/12/16 08:34:46;;;;;;;38.13;14.32;;;10.00;99.90;;;;;;4997002;28;20053;-75
2020/12/16 08:37:14;;;;;;;42.40;15.20;;;10.30;99.90;;;;;;5003228;28;20748;-76
2020/12/16 08:39:44;;;;;;;35.20;14.10;;;10.40;99.90;;;;;;5000682;28;20051;-76
2020/12/16 08:42:12;;;;;;;37.83;14.77;;;10.40;99.90;;;;;;4979431;28;20046;-76
2020/12/16 08:48:28;;;;;;;35.25;15.35;;;10.30;99.90;;;;;;4999792;28;20049;-77
2020/12/16 08:51:05;;;;;;;33.75;15.05;;;10.30;99.90;;;;;;5000151;28;20058;-77
2020/12/16 08:53:49;;;;;;;41.78;15.77;;;10.40;99.90;;;;;;4988691;28;20054;-77
2020/12/16 08:56:24;;;;;;;35.80;14.70;;;10.30;99.90;;;;;;5004064;28;20062;-75
2020/12/16 08:59:04;;;;;;;43.70;15.68;;;10.30;99.90;;;;;;4984697;28;20492;-77
2020/12/16 09:01:31;;;;;;;35.83;15.23;;;10.40;99.90;;;;;;5003433;28;20046;-80
2020/12/16 09:03:58;;;;;;;42.42;15.95;;;10.50;99.90;;;;;;5004403;28;20050;-76
2020/12/16 09:06:25;;;;;;;41.47;15.85;;;10.50;99.90;;;;;;4989943;28;20088;-77
2020/12/16 09:08:52;;;;;;;36.28;15.20;;;10.40;99.90;;;;;;4991561;28;20050;-75
2020/12/16 09:11:22;;;;;;;38.90;15.85;;;10.40;99.90;;;;;;4985431;28;20131;-76
2020/12/16 09:13:50;;;;;;;40.33;15.50;;;10.30;99.90;;;;;;4987402;28;20088;-75
2020/12/16 09:16:24;;;;;;;37.42;14.85;;;10.30;99.90;;;;;;4980664;28;20057;-74
2020/12/16 09:18:52;;;;;;;38.58;15.63;;;10.30;99.90;;;;;;5002063;28;20057;-78
2020/12/16 09:21:31;;;;;;;40.15;15.43;;;10.30;99.90;;;;;;4997042;28;20120;-80
2020/12/16 09:23:58;;;;;;;36.13;14.70;;;10.30;99.90;;;;;;4967509;28;20146;-76
2020/12/16 09:26:37;;;;;;;46.05;19.10;;;10.40;99.90;;;;;;4986692;28;20345;-75
2020/12/16 09:32:51;;;;;;;34.58;13.88;;;10.50;99.90;;;;;;5000098;28;20825;-73
2020/12/16 09:35:17;;;;;;;34.40;13.90;;;10.50;99.90;;;;;;5002907;28;20061;-75
2020/12/16 09:37:59;;;;;;;27.38;12.48;;;10.50;99.90;;;;;;4988288;28;20053;-77
2020/12/16 09:40:30;;;;;;;32.83;14.63;;;10.50;99.90;;;;;;4996120;28;20054;-77
2020/12/16 09:42:59;;;;;;;30.25;12.85;;;10.60;99.90;;;;;;5000844;28;20137;-78
2020/12/16 09:45:31;;;;;;;36.30;13.73;;;10.70;99.90;;;;;;4992503;28;20065;-75
2020/12/16 09:47:59;;;;;;;27.98;13.02;;;10.80;99.90;;;;;;4982875;28;20408;-76
2020/12/16 09:50:29;;;;;;;29.42;13.27;;;10.90;99.90;;;;;;5001409;28;20131;-76
2020/12/16 09:53:03;;;;;;;32.53;13.53;;;11.00;99.90;;;;;;5001215;28;20135;-75
2020/12/16 09:58:15;;;;;;;23.63;12.48;;;11.10;99.90;;;;;;4992716;23;20066;-73
2020/12/16 10:00:42;;;;;;;25.95;12.55;;;11.10;99.90;;;;;;5009451;28;20132;-74
2020/12/16 10:03:09;;;;;;;28.20;13.32;;;11.20;99.90;;;;;;4993317;28;20369;-74
2020/12/16 10:05:37;;;;;;;28.80;12.50;;;11.10;99.90;;;;;;5004139;28;20408;-74
2020/12/16 10:08:06;;;;;;;27.20;12.50;;;11.00;99.90;;;;;;4997951;28;20124;-72
2020/12/16 10:10:33;;;;;;;25.83;13.15;;;11.00;99.90;;;;;;4995151;28;20077;-73
2020/12/16 10:12:59;;;;;;;30.92;13.90;;;10.90;99.90;;;;;;4994924;28;20097;-73
2020/12/16 10:15:26;;;;;;;26.55;12.63;;;10.90;99.90;;;;;;5005743;28;20057;-72
2020/12/16 10:17:53;;;;;;;31.38;13.52;;;11.10;99.90;;;;;;5003356;28;20089;-72
2020/12/16 10:20:19;;;;;;;30.20;13.98;;;11.10;99.90;;;;;;4986356;28;20082;-73
2020/12/16 10:22:45;;;;;;;30.65;13.90;;;11.10;99.90;;;;;;4998691;28;20397;-73
2020/12/16 10:25:12;;;;;;;29.75;13.20;;;11.50;99.90;;;;;;5003753;28;20124;-74
2020/12/16 10:27:39;;;;;;;21.45;11.57;;;11.50;99.90;;;;;;5006836;28;20049;-74
2020/12/16 10:30:06;;;;;;;26.30;13.65;;;11.40;99.90;;;;;;5005292;28;21852;-73
2020/12/16 10:32:34;;;;;;;25.80;12.38;;;11.40;99.90;;;;;;5006021;28;20088;-73
2020/12/16 10:35:02;;;;;;;24.30;12.65;;;11.30;99.90;;;;;;5006915;28;20064;-72
2020/12/16 10:37:28;;;;;;;27.27;13.25;;;11.40;99.90;;;;;;4989261;28;20420;-72
2020/12/16 10:39:55;;;;;;;23.63;12.18;;;11.40;99.90;;;;;;4990580;28;20153;-72
2020/12/16 10:42:22;;;;;;;24.13;12.65;;;11.50;99.90;;;;;;4991131;28;20061;-72
2020/12/16 10:44:49;;;;;;;27.08;13.32;;;11.60;99.90;;;;;;5005875;28;20090;-73
2020/12/16 10:47:15;;;;;;;21.83;11.98;;;11.50;99.90;;;;;;5010034;28;20054;-72
2020/12/16 10:49:42;;;;;;;23.20;11.80;;;11.60;99.90;;;;;;4998990;28;20477;-73
2020/12/16 10:52:13;;;;;;;20.90;11.77;;;11.60;99.90;;;;;;4988118;28;20553;-74
2020/12/16 10:54:39;;;;;;;22.38;12.00;;;11.60;99.90;;;;;;4992074;28;20140;-74
2020/12/16 10:57:06;;;;;;;21.60;11.52;;;11.60;99.90;;;;;;4992542;28;20156;-74
2020/12/16 10:59:33;;;;;;;15.65;9.82;;;11.60;99.90;;;;;;4974906;28;20081;-75
2020/12/16 11:02:09;;;;;;;14.50;9.15;;;11.70;99.90;;;;;;4986425;28;20056;-74
2020/12/16 11:04:36;;;;;;;15.40;8.80;;;11.60;99.90;;;;;;4976574;28;20079;-76
2020/12/16 11:07:05;;;;;;;14.55;9.20;;;11.60;99.90;;;;;;4992562;28;20138;-73
2020/12/16 11:09:32;;;;;;;15.55;8.10;;;11.60;99.90;;;;;;4982086;28;20050;-74
2020/12/16 11:11:59;;;;;;;13.73;8.10;;;11.50;99.90;;;;;;4988698;28;20144;-75
2020/12/16 11:14:27;;;;;;;13.68;8.75;;;11.50;99.90;;;;;;4991046;28;20054;-73
2020/12/16 11:16:56;;;;;;;14.48;8.85;;;11.60;99.90;;;;;;4987993;28;20092;-75
2020/12/16 11:19:23;;;;;;;15.93;9.33;;;11.60;99.90;;;;;;4992333;28;20547;-75
2020/12/16 11:21:51;;;;;;;14.80;8.40;;;11.50;99.90;;;;;;4988289;28;20053;-76
2020/12/16 11:24:20;;;;;;;16.35;9.63;;;11.60;99.90;;;;;;4990694;28;20145;-74
2020/12/16 11:26:50;;;;;;;13.90;8.73;;;11.60;99.90;;;;;;4991221;28;20572;-74
2020/12/16 11:29:19;;;;;;;18.77;8.85;;;11.50;99.90;;;;;;4993086;28;20168;-75
2020/12/16 11:31:53;;;;;;;16.50;9.30;;;11.50;99.90;;;;;;4987057;28;20089;-75
2020/12/16 11:34:22;;;;;;;18.00;9.48;;;11.50;99.90;;;;;;4976584;28;20052;-75
2020/12/16 11:36:50;;;;;;;16.42;8.70;;;11.50;99.90;;;;;;4990584;28;20050;-75
2020/12/16 11:39:18;;;;;;;18.00;9.32;;;11.50;99.90;;;;;;4989135;28;20064;-74
2020/12/16 11:41:47;;;;;;;19.00;8.15;;;11.50;99.90;;;;;;4989064;28;20111;-74
2020/12/16 11:44:15;;;;;;;15.57;8.85;;;11.40;99.90;;;;;;4991299;28;20569;-74
2020/12/16 11:46:42;;;;;;;14.48;8.35;;;11.40;99.90;;;;;;4978745;28;20451;-76
2020/12/16 11:49:20;;;;;;;17.27;9.05;;;11.40;99.90;;;;;;4982088;28;20473;-75
2020/12/16 11:51:47;;;;;;;15.90;8.50;;;11.40;99.90;;;;;;4989429;28;20045;-76
2020/12/16 11:54:13;;;;;;;15.65;8.90;;;11.40;99.90;;;;;;4981669;28;20064;-76
2020/12/16 11:56:39;;;;;;;14.00;8.48;;;11.40;99.90;;;;;;4989839;28;20148;-75
2020/12/16 11:59:37;;;;;;;13.32;8.25;;;11.50;99.90;;;;;;4966339;28;20058;-74
2020/12/16 12:02:04;;;;;;;14.73;8.07;;;11.70;99.90;;;;;;4979603;28;20054;-75
2020/12/16 12:04:32;;;;;;;13.70;8.45;;;11.80;99.90;;;;;;4973672;28;20057;-76
2020/12/16 12:06:58;;;;;;;12.00;7.95;;;12.20;99.90;;;;;;4981564;28;20108;-77
2020/12/16 12:09:26;;;;;;;13.65;8.02;;;12.10;99.90;;;;;;4992185;28;20157;-75
2020/12/16 12:11:53;;;;;;;12.25;7.38;;;12.50;99.90;;;;;;4988469;28;20145;-74
2020/12/16 12:14:20;;;;;;;13.98;7.03;;;12.60;99.90;;;;;;4992585;28;20390;-75
2020/12/16 12:16:48;;;;;;;10.13;6.55;;;12.10;99.90;;;;;;4989652;28;20087;-74
2020/12/16 12:19:15;;;;;;;12.50;6.53;;;12.10;99.90;;;;;;4988433;28;20172;-74
2020/12/16 12:21:41;;;;;;;11.45;7.00;;;12.20;99.90;;;;;;4991479;28;20056;-78
2020/12/16 12:24:08;;;;;;;13.40;7.53;;;12.10;99.90;;;;;;4981129;28;20137;-73
2020/12/16 12:26:34;;;;;;;11.77;7.93;;;12.10;99.90;;;;;;4991255;28;20049;-74
2020/12/16 12:29:01;;;;;;;15.23;7.47;;;12.30;99.90;;;;;;4986758;28;20058;-74
2020/12/16 12:31:27;;;;;;;12.05;7.82;;;12.80;99.90;;;;;;4973190;28;20050;-74
2020/12/16 12:33:54;;;;;;;12.50;6.78;;;12.60;99.90;;;;;;4989165;28;20132;-74
2020/12/16 12:36:20;;;;;;;14.60;7.90;;;12.30;99.90;;;;;;4991260;28;20160;-74
2020/12/16 12:38:51;;;;;;;12.80;8.15;;;12.20;99.90;;;;;;4990655;28;20057;-72
2020/12/16 12:41:17;;;;;;;14.73;8.27;;;12.10;99.90;;;;;;4976037;28;20758;-72
2020/12/16 12:43:43;;;;;;;12.48;7.93;;;12.20;99.90;;;;;;4970610;28;20073;-73
2020/12/16 12:46:10;;;;;;;15.82;6.82;;;12.20;99.90;;;;;;4984216;28;20150;-73
2020/12/16 12:48:36;;;;;;;12.02;7.57;;;12.50;99.90;;;;;;4972517;28;20712;-72
2020/12/16 12:51:04;;;;;;;10.63;7.35;;;12.40;99.90;;;;;;4989912;28;20089;-72
2020/12/16 12:53:58;;;;;;;12.95;7.35;;;12.30;99.90;;;;;;4981375;28;20058;-73
2020/12/16 12:56:25;;;;;;;10.40;7.53;;;12.70;99.90;;;;;;4987208;28;20476;-71